createdAt,value
2023-04-03T00:01:20.721Z,1.50
2023-04-03T00:03:48.818Z,1.40
2023-04-03T00:06:17.286Z,1.40
2023-04-03T00:08:45.698Z,1.30
2023-04-03T00:11:14.108Z,1.20
2023-04-03T00:13:43.298Z,1.20
2023-04-03T00:16:13.850Z,1.20
2023-04-03T00:18:41.999Z,1.10
2023-04-03T00:21:12.072Z,1.00
2023-04-03T00:23:40.224Z,1.00
2023-04-03T00:26:08.500Z,1.00
2023-04-03T00:28:36.858Z,0.90
2023-04-03T00:31:05.335Z,0.90
2023-04-03T00:33:34.768Z,0.80
2023-04-03T00:36:08.768Z,0.80
2023-04-03T00:38:36.976Z,0.80
2023-04-03T00:41:05.576Z,0.80
2023-04-03T00:43:34.162Z,0.80
2023-04-03T00:46:02.813Z,0.70
2023-04-03T00:48:35.609Z,0.80
2023-04-03T00:51:05.804Z,0.70
2023-04-03T00:53:37.849Z,0.70
2023-04-03T00:56:10.334Z,0.70
2023-04-03T00:58:44.710Z,0.80
2023-04-03T01:01:16.109Z,0.80
2023-04-03T01:03:45.971Z,0.70
2023-04-03T01:06:18.232Z,0.70
2023-04-03T01:08:51.665Z,0.70
2023-04-03T01:11:21.986Z,0.70
2023-04-03T01:13:51.338Z,0.70
2023-04-03T01:16:19.855Z,0.70
2023-04-03T01:18:50.516Z,0.70
2023-04-03T01:21:53.675Z,0.70
2023-04-03T01:24:34.301Z,0.80
2023-04-03T01:27:07.903Z,0.80
2023-04-03T01:29:36.293Z,0.80
2023-04-03T01:32:06.118Z,0.90
2023-04-03T01:34:34.665Z,0.90
2023-04-03T01:37:03.289Z,0.90
2023-04-03T01:39:31.352Z,1.00
2023-04-03T01:42:00.250Z,1.00
2023-04-03T01:44:32.978Z,1.00
2023-04-03T01:47:02.032Z,1.00
2023-04-03T01:49:32.407Z,1.00
2023-04-03T01:52:00.717Z,0.90
2023-04-03T01:54:28.916Z,0.90
2023-04-03T01:56:57.036Z,0.80
2023-04-03T01:59:25.305Z,0.80
2023-04-03T02:01:54.344Z,0.80
2023-04-03T02:04:22.397Z,0.70
2023-04-03T02:06:51.927Z,0.70
2023-04-03T02:09:19.981Z,0.60
2023-04-03T02:11:48.083Z,0.60
2023-04-03T02:14:16.238Z,0.60
2023-04-03T02:16:44.714Z,0.60
2023-04-03T02:19:12.815Z,0.60
2023-04-03T02:21:41.577Z,0.50
2023-04-03T02:24:11.241Z,0.50
2023-04-03T02:26:39.313Z,0.50
2023-04-03T02:29:07.534Z,0.40
2023-04-03T02:31:37.259Z,0.40
2023-04-03T02:34:06.532Z,0.40
2023-04-03T02:36:36.552Z,0.30
2023-04-03T02:39:07.911Z,0.30
2023-04-03T02:41:38.449Z,0.30
2023-04-03T02:44:13.844Z,0.30
2023-04-03T02:46:41.987Z,0.30
2023-04-03T02:49:10.055Z,0.30
2023-04-03T02:51:38.650Z,0.30
2023-04-03T02:54:06.934Z,0.20
2023-04-03T02:56:39.400Z,0.20
2023-04-03T02:59:08.037Z,0.20
2023-04-03T03:01:38.492Z,0.20
2023-04-03T03:04:06.696Z,0.20
2023-04-03T03:06:34.720Z,0.20
2023-04-03T03:09:03.010Z,0.10
2023-04-03T03:11:31.412Z,0.10
2023-04-03T03:14:00.867Z,0.10
2023-04-03T03:16:29.082Z,0.10
2023-04-03T03:18:59.066Z,0.10
2023-04-03T03:21:27.614Z,0.00
2023-04-03T03:23:55.755Z,0.00
2023-04-03T03:26:24.653Z,0.00
2023-04-03T03:28:52.908Z,0.00
2023-04-03T03:31:22.377Z,0.00
2023-04-03T03:33:51.002Z,0.00
2023-04-03T03:36:19.102Z,0.00
2023-04-03T03:38:47.220Z,0.00
2023-04-03T03:41:15.508Z,-0.10
2023-04-03T03:43:45.661Z,0.00
2023-04-03T03:46:16.049Z,0.00
2023-04-03T03:48:45.845Z,0.00
2023-04-03T03:51:13.964Z,0.00
2023-04-03T03:53:42.292Z,0.00
2023-04-03T03:56:15.389Z,0.00
2023-04-03T03:58:44.266Z,0.00
2023-04-03T04:01:12.441Z,0.00
2023-04-03T04:03:46.627Z,0.00
2023-04-03T04:06:19.268Z,0.00
2023-04-03T04:08:47.942Z,0.00
2023-04-03T04:11:16.884Z,0.00
2023-04-03T04:13:47.364Z,0.00
2023-04-03T04:16:17.782Z,0.00
2023-04-03T04:18:47.298Z,0.00
2023-04-03T04:21:15.758Z,0.00
2023-04-03T04:23:44.636Z,0.00
2023-04-03T04:26:12.886Z,0.00
2023-04-03T04:28:42.048Z,0.00
2023-04-03T04:31:10.505Z,0.00
2023-04-03T04:33:38.728Z,0.00
2023-04-03T04:36:10.567Z,0.00
2023-04-03T04:38:39.689Z,0.00
2023-04-03T04:41:08.465Z,0.00
2023-04-03T04:43:37.549Z,0.00
2023-04-03T04:46:08.379Z,0.00
2023-04-03T04:48:41.881Z,0.00
2023-04-03T04:51:12.777Z,0.00
2023-04-03T04:53:41.403Z,0.00
2023-04-03T04:56:11.756Z,0.00
2023-04-03T04:58:41.345Z,0.00
2023-04-03T05:01:12.065Z,0.00
2023-04-03T05:03:49.798Z,0.00
2023-04-03T05:06:20.642Z,-0.10
2023-04-03T05:08:49.277Z,0.00
2023-04-03T05:11:18.614Z,0.00
2023-04-03T05:13:49.248Z,0.00
2023-04-03T05:16:17.707Z,0.00
2023-04-03T05:18:46.194Z,-0.10
2023-04-03T05:21:22.788Z,0.00
2023-04-03T05:23:52.837Z,0.00
2023-04-03T05:26:22.015Z,0.00
2023-04-03T05:28:51.837Z,0.00
2023-04-03T05:31:20.985Z,0.00
2023-04-03T05:33:49.541Z,0.00
2023-04-03T05:36:21.454Z,0.10
2023-04-03T05:38:57.091Z,0.10
2023-04-03T05:41:26.120Z,0.20
2023-04-03T05:43:54.186Z,0.20
2023-04-03T05:46:25.010Z,0.30
2023-04-03T05:48:57.043Z,0.40
2023-04-03T05:51:34.058Z,0.50
2023-04-03T05:54:13.811Z,0.70
2023-04-03T05:56:42.612Z,0.80
2023-04-03T05:59:11.028Z,0.90
2023-04-03T06:01:39.814Z,1.10
2023-04-03T06:04:10.015Z,1.20
2023-04-03T06:06:49.378Z,1.40
2023-04-03T06:09:18.269Z,1.60
2023-04-03T06:11:46.928Z,1.70
2023-04-03T06:14:16.332Z,1.90
2023-04-03T06:16:44.641Z,2.10
2023-04-03T06:19:14.002Z,2.30
2023-04-03T06:21:49.316Z,2.50
2023-04-03T06:24:18.861Z,2.60
2023-04-03T06:26:47.172Z,2.80
2023-04-03T06:29:15.655Z,3.00
2023-04-03T06:31:43.725Z,3.20
2023-04-03T06:34:12.804Z,3.50
2023-04-03T06:36:41.503Z,3.60
2023-04-03T06:39:13.829Z,3.80
2023-04-03T06:41:42.084Z,4.10
2023-04-03T06:44:12.155Z,4.30
2023-04-03T06:46:41.279Z,4.50
2023-04-03T06:49:09.736Z,4.70
2023-04-03T06:51:38.986Z,5.00
2023-04-03T06:54:09.186Z,5.20
2023-04-03T06:56:39.136Z,5.50
2023-04-03T06:59:07.215Z,5.70
2023-04-03T07:01:38.072Z,5.90
2023-04-03T07:04:06.770Z,6.20
2023-04-03T07:06:35.133Z,6.50
2023-04-03T07:09:04.533Z,6.70
2023-04-03T07:11:32.686Z,6.90
2023-04-03T07:14:02.206Z,7.20
2023-04-03T07:16:31.966Z,7.50
2023-04-03T07:19:00.535Z,7.80
2023-04-03T07:21:28.897Z,8.20
2023-04-03T07:23:57.289Z,8.50
2023-04-03T07:26:26.642Z,8.80
2023-04-03T07:28:54.718Z,9.10
2023-04-03T07:31:24.261Z,9.40
2023-04-03T07:33:52.940Z,9.70
2023-04-03T07:36:23.342Z,10.00
2023-04-03T07:38:51.562Z,10.30
2023-04-03T07:41:23.652Z,10.60
2023-04-03T07:43:51.839Z,10.90
2023-04-03T07:46:20.242Z,11.10
2023-04-03T07:48:49.762Z,11.20
2023-04-03T07:51:18.225Z,11.30
2023-04-03T07:53:46.470Z,11.40
2023-04-03T07:56:14.556Z,11.60
2023-04-03T07:58:42.835Z,11.70
2023-04-03T08:01:12.405Z,11.90
2023-04-03T08:03:41.015Z,12.10
2023-04-03T08:06:15.656Z,12.40
2023-04-03T08:08:44.960Z,12.60
2023-04-03T08:11:14.063Z,12.80
2023-04-03T08:13:42.503Z,13.20
2023-04-03T08:16:12.798Z,13.30
2023-04-03T08:18:41.362Z,13.50
2023-04-03T08:21:12.230Z,13.60
2023-04-03T08:23:42.236Z,13.90
2023-04-03T08:26:11.894Z,14.20
2023-04-03T08:28:40.633Z,14.40
2023-04-03T08:31:12.196Z,14.60
2023-04-03T08:33:41.228Z,14.90
2023-04-03T08:36:19.986Z,15.20
2023-04-03T08:38:48.152Z,15.60
2023-04-03T08:41:21.460Z,15.80
2023-04-03T08:44:00.343Z,15.90
2023-04-03T08:46:40.055Z,16.20
2023-04-03T08:49:18.623Z,16.00
2023-04-03T08:51:51.933Z,16.20
2023-04-03T08:54:27.826Z,16.40
2023-04-03T08:56:57.170Z,16.70
2023-04-03T08:59:31.471Z,17.10
2023-04-03T09:02:03.402Z,17.30
2023-04-03T09:04:34.491Z,17.80
2023-04-03T09:07:09.444Z,18.30
2023-04-03T09:09:42.097Z,18.70
2023-04-03T09:12:19.322Z,18.90
2023-04-03T09:14:58.042Z,19.20
2023-04-03T09:17:39.352Z,19.50
2023-04-03T09:20:20.951Z,19.90
2023-04-03T09:22:53.958Z,20.20
2023-04-03T09:25:24.852Z,20.30
2023-04-03T09:27:54.693Z,20.40
2023-04-03T09:30:24.731Z,20.50
2023-04-03T09:32:55.855Z,20.70
2023-04-03T09:35:36.390Z,21.00
2023-04-03T09:38:22.162Z,21.10
2023-04-03T09:40:53.718Z,20.80
2023-04-03T09:43:28.344Z,20.90
2023-04-03T09:45:57.681Z,21.00
2023-04-03T09:48:27.505Z,21.20
2023-04-03T09:51:00.330Z,21.80
2023-04-03T09:53:37.800Z,22.10
2023-04-03T09:56:22.868Z,22.40
2023-04-03T09:58:52.968Z,22.70
2023-04-03T10:01:28.595Z,23.10
2023-04-03T10:04:08.769Z,22.80
2023-04-03T10:06:43.814Z,22.50
2023-04-03T10:09:22.642Z,22.40
2023-04-03T10:12:06.622Z,22.20
2023-04-03T10:14:35.559Z,22.30
2023-04-03T10:17:25.621Z,22.50
2023-04-03T10:19:58.491Z,23.10
2023-04-03T10:22:39.363Z,24.10
2023-04-03T10:25:16.991Z,25.90
2023-04-03T10:27:55.887Z,27.80
2023-04-03T10:30:34.667Z,29.30
2023-04-03T10:33:37.977Z,31.00
2023-04-03T10:36:19.642Z,33.10
2023-04-03T10:38:58.017Z,34.80
2023-04-03T10:41:36.446Z,35.30
2023-04-03T10:44:16.930Z,36.30
2023-04-03T10:46:49.725Z,37.30
2023-04-03T10:49:29.850Z,38.30
2023-04-03T10:52:08.199Z,39.00
2023-04-03T10:54:40.894Z,38.60
2023-04-03T10:57:14.006Z,38.60
2023-04-03T10:59:46.449Z,39.20
2023-04-03T11:02:24.019Z,38.90
2023-04-03T11:04:55.761Z,39.20
2023-04-03T11:07:27.770Z,39.30
2023-04-03T11:10:00.798Z,39.30
2023-04-03T11:12:35.633Z,40.20
2023-04-03T11:15:05.868Z,39.20
2023-04-03T11:17:39.276Z,39.40
2023-04-03T11:20:17.667Z,39.80
2023-04-03T11:22:49.204Z,40.00
2023-04-03T11:25:23.357Z,40.90
2023-04-03T11:27:58.661Z,41.30
2023-04-03T11:30:32.550Z,41.60
2023-04-03T11:33:30.560Z,42.20
2023-04-03T11:36:07.345Z,42.50
2023-04-03T11:38:46.707Z,42.40
2023-04-03T11:41:29.953Z,42.30
2023-04-03T11:44:02.578Z,42.00
2023-04-03T11:46:57.003Z,41.80
2023-04-03T11:49:55.089Z,41.90
2023-04-03T11:52:57.041Z,42.20
2023-04-03T11:55:47.656Z,42.30
2023-04-03T11:58:18.374Z,42.80
2023-04-03T12:00:54.784Z,43.30
2023-04-03T12:04:01.980Z,43.30
2023-04-03T12:07:11.786Z,43.20
2023-04-03T12:10:31.006Z,42.40
2023-04-03T12:13:04.764Z,42.90
2023-04-03T12:15:51.651Z,44.20
2023-04-03T12:18:56.434Z,45.20
2023-04-03T12:21:25.812Z,45.70
2023-04-03T12:24:06.867Z,44.70
2023-04-03T12:26:48.740Z,43.70
2023-04-03T12:29:22.450Z,43.80
2023-04-03T12:32:08.456Z,44.70
2023-04-03T12:34:57.972Z,45.50
2023-04-03T12:37:45.295Z,45.60
2023-04-03T12:40:22.846Z,43.60
2023-04-03T12:43:11.166Z,42.30
2023-04-03T12:45:48.624Z,40.90
2023-04-03T12:48:19.332Z,40.80
2023-04-03T12:50:49.838Z,40.50
2023-04-03T12:53:21.488Z,40.30
2023-04-03T12:55:49.581Z,41.00
2023-04-03T12:58:23.522Z,42.20
2023-04-03T13:01:02.865Z,41.90
2023-04-03T13:03:32.335Z,41.60
2023-04-03T13:06:04.741Z,41.70
2023-04-03T13:08:33.445Z,42.20
2023-04-03T13:11:05.053Z,42.20
2023-04-03T13:13:33.693Z,42.20
2023-04-03T13:16:02.016Z,41.50
2023-04-03T13:18:33.234Z,42.00
2023-04-03T13:21:07.048Z,42.10
2023-04-03T13:23:38.185Z,42.60
2023-04-03T13:26:07.552Z,41.50
2023-04-03T13:28:36.603Z,39.30
2023-04-03T13:31:11.443Z,36.50
2023-04-03T13:33:39.990Z,33.50
2023-04-03T13:36:19.393Z,31.90
2023-04-03T13:38:47.756Z,32.60
2023-04-03T13:41:34.336Z,33.20
2023-04-03T13:44:19.004Z,34.60
2023-04-03T13:46:47.434Z,36.30
2023-04-03T13:49:33.293Z,37.20
2023-04-03T13:52:21.134Z,37.40
2023-04-03T13:54:53.661Z,36.50
2023-04-03T13:57:22.211Z,34.60
2023-04-03T13:59:50.876Z,32.10
2023-04-03T14:02:22.895Z,29.70
2023-04-03T14:04:57.249Z,27.40
2023-04-03T14:07:27.394Z,25.60
2023-04-03T14:09:56.002Z,23.90
2023-04-03T14:12:32.387Z,22.40
2023-04-03T14:15:02.690Z,21.00
2023-04-03T14:17:33.442Z,20.10
2023-04-03T14:20:01.950Z,19.30
2023-04-03T14:22:34.803Z,18.80
2023-04-03T14:25:03.174Z,18.20
2023-04-03T14:27:35.402Z,17.70
2023-04-03T14:30:04.978Z,17.20
2023-04-03T14:32:33.235Z,17.00
2023-04-03T14:35:01.834Z,16.50
2023-04-03T14:37:32.717Z,16.20
2023-04-03T14:40:02.534Z,15.90
2023-04-03T14:42:33.321Z,15.50
2023-04-03T14:45:03.602Z,15.20
2023-04-03T14:47:32.775Z,15.00
2023-04-03T14:50:02.162Z,14.80
2023-04-03T14:52:35.120Z,14.70
2023-04-03T14:55:04.895Z,14.60
2023-04-03T14:57:33.684Z,14.50
2023-04-03T15:00:03.682Z,14.30
2023-04-03T15:02:34.701Z,14.10
2023-04-03T15:05:05.076Z,14.00
2023-04-03T15:07:37.248Z,13.80
2023-04-03T15:10:17.288Z,13.70
2023-04-03T15:12:46.342Z,13.50
2023-04-03T15:15:15.301Z,13.40
2023-04-03T15:17:44.249Z,13.40
2023-04-03T15:20:15.619Z,13.40
2023-04-03T15:22:45.306Z,13.40
2023-04-03T15:25:13.663Z,13.40
2023-04-03T15:27:42.543Z,13.40
2023-04-03T15:30:16.719Z,13.30
2023-04-03T15:32:44.940Z,13.20
2023-04-03T15:35:13.092Z,13.00
2023-04-03T15:37:41.571Z,12.90
2023-04-03T15:40:11.791Z,12.70
2023-04-03T15:42:40.939Z,12.60
2023-04-03T15:45:10.578Z,12.40
2023-04-03T15:47:38.936Z,12.30
2023-04-03T15:50:08.974Z,12.00
2023-04-03T15:52:37.486Z,11.90
2023-04-03T15:55:06.982Z,11.80
2023-04-03T16:00:10.891Z,11.50
2023-04-03T16:02:38.992Z,11.40
2023-04-03T16:05:08.165Z,11.20
2023-04-03T16:07:36.649Z,11.20
2023-04-03T16:10:05.198Z,11.20
2023-04-03T16:12:33.321Z,11.20
2023-04-03T16:15:03.080Z,11.20
2023-04-03T16:17:31.941Z,11.20
2023-04-03T16:20:00.685Z,11.10
2023-04-03T16:22:30.542Z,10.90
2023-04-03T16:24:58.598Z,10.80
2023-04-03T16:27:28.456Z,10.60
2023-04-03T16:29:56.787Z,10.40
2023-04-03T16:32:28.589Z,10.30
2023-04-03T16:34:57.010Z,10.20
2023-04-03T16:37:26.550Z,10.10
2023-04-03T16:39:55.612Z,10.00
2023-04-03T16:42:23.623Z,10.00
2023-04-03T16:44:53.605Z,9.90
2023-04-03T16:47:21.618Z,9.80
2023-04-03T16:49:51.239Z,9.70
2023-04-03T16:52:19.484Z,9.50
2023-04-03T16:54:47.914Z,9.40
2023-04-03T16:57:15.973Z,9.30
2023-04-03T16:59:44.143Z,9.30
2023-04-03T17:02:12.348Z,9.20
2023-04-03T17:04:40.729Z,9.00
2023-04-03T17:07:10.250Z,9.00
2023-04-03T17:09:38.961Z,8.90
2023-04-03T17:12:07.236Z,8.80
2023-04-03T17:14:35.526Z,8.70
2023-04-03T17:17:04.494Z,8.70
2023-04-03T17:19:32.823Z,8.50
2023-04-03T17:22:01.230Z,8.40
2023-04-03T17:24:32.020Z,8.30
2023-04-03T17:27:00.319Z,8.20
2023-04-03T17:29:28.515Z,8.10
2023-04-03T17:31:59.677Z,8.00
2023-04-03T17:34:27.870Z,7.90
2023-04-03T17:36:56.100Z,7.80
2023-04-03T17:39:24.302Z,7.70
2023-04-03T17:41:54.950Z,7.60
2023-04-03T17:44:23.842Z,7.60
2023-04-03T17:46:53.949Z,7.50
2023-04-03T17:49:22.435Z,7.40
2023-04-03T17:51:50.780Z,7.30
2023-04-03T17:54:18.897Z,7.20
2023-04-03T17:56:48.337Z,7.10
2023-04-03T17:59:19.266Z,7.00
2023-04-03T18:01:48.079Z,6.90
2023-04-03T18:04:16.694Z,6.80
2023-04-03T18:06:48.124Z,6.70
2023-04-03T18:09:19.516Z,6.60
2023-04-03T18:11:49.186Z,6.50
2023-04-03T18:14:20.800Z,6.30
2023-04-03T18:16:48.976Z,6.30
2023-04-03T18:19:23.383Z,6.20
2023-04-03T18:21:52.439Z,6.10
2023-04-03T18:24:23.160Z,6.00
2023-04-03T18:26:56.278Z,6.00
2023-04-03T18:29:26.203Z,5.90
2023-04-03T18:31:56.770Z,5.80
2023-04-03T18:34:24.959Z,5.70
2023-04-03T18:36:53.630Z,5.60
2023-04-03T18:39:23.346Z,5.60
2023-04-03T18:41:53.836Z,5.50
2023-04-03T18:44:26.684Z,5.40
2023-04-03T18:46:56.681Z,5.40
2023-04-03T18:49:25.493Z,5.30
2023-04-03T18:51:53.738Z,5.30
2023-04-03T18:54:21.879Z,5.20
2023-04-03T18:56:50.046Z,5.10
2023-04-03T18:59:18.331Z,5.10
2023-04-03T19:01:47.786Z,5.10
2023-04-03T19:04:18.014Z,5.00
2023-04-03T19:06:46.322Z,5.00
2023-04-03T19:09:14.611Z,5.00
2023-04-03T19:11:42.847Z,4.90
2023-04-03T19:14:16.822Z,4.90
2023-04-03T19:16:47.077Z,4.90
2023-04-03T19:19:15.404Z,4.80
2023-04-03T19:21:43.566Z,4.80
2023-04-03T19:24:13.366Z,4.70
2023-04-03T19:26:42.054Z,4.70
2023-04-03T19:29:10.349Z,4.70
2023-04-03T19:31:39.179Z,4.60
2023-04-03T19:34:09.031Z,4.60
2023-04-03T19:36:37.699Z,4.50
2023-04-03T19:39:06.881Z,4.50
2023-04-03T19:41:38.722Z,4.40
2023-04-03T19:44:08.217Z,4.40
2023-04-03T19:46:37.272Z,4.30
2023-04-03T19:49:06.061Z,4.30
2023-04-03T19:51:35.875Z,4.30
2023-04-03T19:54:05.934Z,4.20
2023-04-03T19:56:34.006Z,4.20
2023-04-03T19:59:02.057Z,4.20
2023-04-03T20:01:30.954Z,4.20
2023-04-03T20:03:59.321Z,4.10
2023-04-03T20:06:27.494Z,4.10
2023-04-03T20:08:56.915Z,4.10
2023-04-03T20:11:26.576Z,4.10
2023-04-03T20:13:56.361Z,4.00
2023-04-03T20:16:28.177Z,4.00
2023-04-03T20:18:56.817Z,4.00
2023-04-03T20:21:29.851Z,3.90
2023-04-03T20:23:59.738Z,3.90
2023-04-03T20:26:29.694Z,3.80
2023-04-03T20:29:00.078Z,3.80
2023-04-03T20:31:29.986Z,3.80
2023-04-03T20:33:58.138Z,3.70
2023-04-03T20:36:28.377Z,3.70
2023-04-03T20:38:57.549Z,3.60
2023-04-03T20:41:27.623Z,3.60
2023-04-03T20:43:55.727Z,3.50
2023-04-03T20:46:34.874Z,3.50
2023-04-03T20:49:11.088Z,3.40
2023-04-03T20:51:42.063Z,3.40
2023-04-03T20:54:10.582Z,3.30
2023-04-03T20:56:40.320Z,3.30
2023-04-03T20:59:09.646Z,3.20
2023-04-03T21:01:37.919Z,3.20
2023-04-03T21:04:13.276Z,3.20
2023-04-03T21:07:18.883Z,3.10
2023-04-03T21:10:24.834Z,3.10
2023-04-03T21:13:30.191Z,3.00
2023-04-03T21:16:00.236Z,2.90
2023-04-03T21:18:43.402Z,2.90
2023-04-03T21:21:20.641Z,2.80
2023-04-03T21:23:49.488Z,2.80
2023-04-03T21:26:18.331Z,2.70
2023-04-03T21:28:47.345Z,2.70
2023-04-03T21:31:15.506Z,2.60
2023-04-03T21:33:45.196Z,2.60
2023-04-03T21:36:13.488Z,2.60
2023-04-03T21:38:41.640Z,2.50
2023-04-03T21:41:09.730Z,2.50
2023-04-03T21:43:38.045Z,2.40
2023-04-03T21:46:06.548Z,2.40
2023-04-03T21:48:36.740Z,2.30
2023-04-03T21:51:07.222Z,2.30
2023-04-03T21:53:36.039Z,2.30
2023-04-03T21:56:04.160Z,2.20
2023-04-03T21:58:33.037Z,2.20
2023-04-03T22:01:09.976Z,2.10
2023-04-03T22:03:38.368Z,2.10
2023-04-03T22:06:08.278Z,2.10
2023-04-03T22:08:36.814Z,2.00
2023-04-03T22:11:06.060Z,2.00
2023-04-03T22:13:34.447Z,1.90
2023-04-03T22:16:02.742Z,1.90
2023-04-03T22:18:31.782Z,1.90
2023-04-03T22:20:59.858Z,1.90
2023-04-03T22:23:29.452Z,1.80
2023-04-03T22:26:05.350Z,1.80
2023-04-03T22:28:35.001Z,1.80
2023-04-03T22:31:03.808Z,1.70
2023-04-03T22:33:34.561Z,1.70
2023-04-03T22:36:03.026Z,1.70
2023-04-03T22:38:32.759Z,1.60
2023-04-03T22:41:02.702Z,1.60
2023-04-03T22:43:32.627Z,1.60
2023-04-03T22:46:02.207Z,1.50
2023-04-03T22:48:30.946Z,1.50
2023-04-03T22:51:00.023Z,1.40
2023-04-03T22:53:28.371Z,1.40
2023-04-03T22:55:58.733Z,1.40
2023-04-03T22:58:27.723Z,1.30
2023-04-03T23:01:06.630Z,1.20
2023-04-03T23:03:35.932Z,1.20
2023-04-03T23:06:04.483Z,1.20
2023-04-03T23:08:34.551Z,1.10
2023-04-03T23:11:04.084Z,1.10
2023-04-03T23:13:32.362Z,1.10
2023-04-03T23:16:02.423Z,1.00
2023-04-03T23:18:31.814Z,1.00
2023-04-03T23:21:01.150Z,1.00
2023-04-03T23:23:29.502Z,1.00
2023-04-03T23:25:59.364Z,0.90
2023-04-03T23:28:29.678Z,0.90
2023-04-03T23:31:01.296Z,0.90
2023-04-03T23:33:30.712Z,0.80
2023-04-03T23:35:59.379Z,0.80
2023-04-03T23:38:27.902Z,0.80
2023-04-03T23:40:55.983Z,0.70
2023-04-03T23:43:24.338Z,0.70
2023-04-03T23:45:53.771Z,0.60
2023-04-03T23:48:22.770Z,0.60
2023-04-03T23:50:50.800Z,0.60
2023-04-03T23:53:19.143Z,0.60
2023-04-03T23:55:47.218Z,0.60
2023-04-03T23:58:15.929Z,0.50
